createdAt,value
2019-03-09T00:00:01.627Z,91.99
2019-03-09T00:01:01.849Z,92.18
2019-03-09T00:02:02.074Z,92.56
2019-03-09T00:03:02.299Z,92.94
2019-03-09T00:04:02.523Z,92.37
2019-03-09T00:05:02.745Z,92.37
2019-03-09T00:06:02.969Z,92.66
2019-03-09T00:07:03.194Z,92.56
2019-03-09T00:08:03.417Z,92.37
2019-03-09T00:09:03.649Z,92.56
2019-03-09T00:10:03.861Z,93.23
2019-03-09T00:11:04.086Z,92.56
2019-03-09T00:12:04.310Z,92.66
2019-03-09T00:13:04.533Z,92.56
2019-03-09T00:14:04.760Z,92.56
2019-03-09T00:15:04.981Z,93.32
2019-03-09T00:16:05.209Z,93.23
2019-03-09T00:17:05.431Z,93.41
2019-03-09T00:18:05.651Z,93.41
2019-03-09T00:19:05.875Z,93.13
2019-03-09T00:20:06.099Z,93.32
2019-03-09T00:21:06.326Z,93.32
2019-03-09T00:22:06.545Z,93.23
2019-03-09T00:23:06.771Z,93.70
2019-03-09T00:24:06.994Z,93.99
2019-03-09T00:25:07.216Z,93.60
2019-03-09T00:26:07.439Z,93.89
2019-03-09T00:27:07.667Z,93.89
2019-03-09T00:28:07.889Z,94.08
2019-03-09T00:29:08.113Z,93.23
2019-03-09T00:30:08.339Z,94.08
2019-03-09T00:31:08.561Z,93.79
2019-03-09T00:32:08.786Z,93.41
2019-03-09T00:33:09.015Z,93.04
2019-03-09T00:34:09.234Z,93.23
2019-03-09T00:35:09.457Z,93.23
2019-03-09T00:36:09.681Z,93.23
2019-03-09T00:37:09.907Z,93.13
2019-03-09T00:38:10.128Z,92.94
2019-03-09T00:39:10.350Z,92.75
2019-03-09T00:40:10.574Z,92.56
2019-03-09T00:41:10.796Z,91.80
2019-03-09T00:42:11.022Z,91.99
2019-03-09T00:43:11.246Z,91.18
2019-03-09T00:44:11.471Z,90.89
2019-03-09T00:45:11.696Z,90.89
2019-03-09T00:46:11.918Z,90.52
2019-03-09T00:47:12.145Z,90.23
2019-03-09T00:48:12.374Z,90.04
2019-03-09T00:49:12.592Z,90.04
2019-03-09T00:50:12.816Z,89.56
2019-03-09T00:51:13.038Z,89.47
2019-03-09T00:52:13.260Z,89.47
2019-03-09T00:53:13.486Z,89.75
2019-03-09T00:54:15.191Z,89.37
2019-03-09T00:55:13.933Z,88.52
2019-03-09T00:56:14.153Z,88.80
2019-03-09T00:57:14.379Z,89.09
2019-03-09T00:58:14.601Z,89.00
2019-03-09T00:59:14.824Z,88.61
2019-03-09T01:01:15.323Z,88.61
2019-03-09T01:02:15.548Z,88.42
2019-03-09T01:03:15.773Z,88.52
2019-03-09T01:04:15.998Z,88.33
2019-03-09T01:05:16.220Z,88.61
2019-03-09T01:06:16.445Z,88.52
2019-03-09T01:07:16.671Z,88.04
2019-03-09T01:08:16.893Z,88.23
2019-03-09T01:09:17.118Z,88.71
2019-03-09T01:10:17.341Z,88.13
2019-03-09T01:11:17.570Z,87.95
2019-03-09T01:12:17.787Z,87.57
2019-03-09T01:13:18.011Z,88.52
2019-03-09T01:14:18.233Z,88.80
2019-03-09T01:15:18.455Z,87.57
2019-03-09T01:16:18.676Z,87.47
2019-03-09T01:17:18.904Z,87.09
2019-03-09T01:18:19.128Z,87.09
2019-03-09T01:19:19.352Z,86.99
2019-03-09T01:20:19.575Z,87.19
2019-03-09T01:21:19.797Z,87.19
2019-03-09T01:22:20.021Z,87.19
2019-03-09T01:23:20.245Z,87.19
2019-03-09T01:24:20.467Z,86.66
2019-03-09T01:25:20.691Z,86.43
2019-03-09T01:26:20.911Z,86.14
2019-03-09T01:27:21.133Z,86.66
2019-03-09T01:28:21.358Z,87.04
2019-03-09T01:29:21.583Z,87.76
2019-03-09T01:30:21.807Z,87.38
2019-03-09T01:31:22.029Z,87.80
2019-03-09T01:32:22.252Z,88.18
2019-03-09T01:33:22.476Z,88.28
2019-03-09T01:34:22.702Z,88.04
2019-03-09T01:35:22.929Z,88.28
2019-03-09T01:36:23.154Z,88.66
2019-03-09T01:37:23.377Z,88.56
2019-03-09T01:38:23.599Z,88.04
2019-03-09T01:39:23.823Z,88.52
2019-03-09T01:40:24.050Z,89.04
2019-03-09T01:41:24.269Z,89.32
2019-03-09T01:42:24.496Z,88.66
2019-03-09T01:43:24.723Z,89.04
2019-03-09T01:44:24.946Z,89.04
2019-03-09T01:45:25.169Z,89.32
2019-03-09T01:46:25.392Z,89.14
2019-03-09T01:47:25.616Z,88.94
2019-03-09T01:48:25.842Z,88.56
2019-03-09T01:49:26.068Z,89.42
2019-03-09T01:50:26.291Z,88.71
2019-03-09T01:51:26.520Z,89.32
2019-03-09T01:52:26.744Z,89.14
2019-03-09T01:53:36.237Z,88.75
2019-03-09T01:54:27.191Z,88.85
2019-03-09T01:55:27.416Z,88.80
2019-03-09T01:56:27.637Z,88.80
2019-03-09T01:57:27.850Z,90.08
2019-03-09T01:58:28.072Z,89.51
2019-03-09T01:59:28.295Z,89.42
2019-03-09T02:00:28.522Z,89.04
2019-03-09T02:01:28.745Z,89.04
2019-03-09T02:02:28.966Z,88.85
2019-03-09T02:03:29.191Z,88.66
2019-03-09T02:04:29.410Z,88.94
2019-03-09T02:05:29.635Z,88.46
2019-03-09T02:06:29.863Z,88.18
2019-03-09T02:07:30.084Z,88.09
2019-03-09T02:08:30.309Z,88.09
2019-03-09T02:09:30.535Z,87.90
2019-03-09T02:10:30.754Z,88.18
2019-03-09T02:11:30.982Z,87.90
2019-03-09T02:12:31.203Z,87.90
2019-03-09T02:13:31.425Z,87.61
2019-03-09T02:14:31.666Z,87.90
2019-03-09T02:15:31.872Z,87.52
2019-03-09T02:16:32.096Z,88.09
2019-03-09T02:17:32.318Z,87.61
2019-03-09T02:18:32.545Z,87.61
2019-03-09T02:19:32.767Z,87.99
2019-03-09T02:20:32.992Z,87.47
2019-03-09T02:21:33.215Z,88.33
2019-03-09T02:22:33.439Z,88.61
2019-03-09T02:23:33.661Z,89.00
2019-03-09T02:24:33.888Z,89.00
2019-03-09T02:25:34.110Z,88.61
2019-03-09T02:26:34.333Z,88.52
2019-03-09T02:27:34.558Z,88.66
2019-03-09T02:28:34.784Z,88.23
2019-03-09T02:29:35.007Z,88.75
2019-03-09T02:30:35.230Z,88.66
2019-03-09T02:31:35.453Z,87.85
2019-03-09T02:32:35.681Z,87.95
2019-03-09T02:33:35.903Z,88.09
2019-03-09T02:34:36.137Z,88.52
2019-03-09T02:35:36.353Z,88.56
2019-03-09T02:36:36.576Z,87.80
2019-03-09T02:37:36.798Z,87.61
2019-03-09T02:38:37.021Z,87.32
2019-03-09T02:39:37.244Z,87.32
2019-03-09T02:40:37.477Z,87.32
2019-03-09T02:41:37.692Z,87.04
2019-03-09T02:42:37.916Z,87.13
2019-03-09T02:43:38.139Z,86.94
2019-03-09T02:44:38.362Z,86.85
2019-03-09T02:45:38.586Z,86.76
2019-03-09T02:46:38.812Z,87.04
2019-03-09T02:47:39.036Z,87.23
2019-03-09T02:48:39.258Z,86.47
2019-03-09T02:49:39.479Z,85.99
2019-03-09T02:50:39.745Z,85.85
2019-03-09T02:51:39.964Z,85.52
2019-03-09T02:52:40.190Z,85.33
2019-03-09T02:53:40.413Z,85.42
2019-03-09T02:54:40.635Z,85.71
2019-03-09T02:55:40.860Z,85.14
2019-03-09T02:56:41.081Z,85.04
2019-03-09T02:57:41.305Z,85.52
2019-03-09T02:58:41.531Z,85.04
2019-03-09T02:59:41.753Z,84.85
2019-03-09T03:00:41.975Z,84.00
2019-03-09T03:01:42.206Z,84.66
2019-03-09T03:02:42.423Z,84.56
2019-03-09T03:03:42.648Z,84.47
2019-03-09T03:04:42.873Z,84.47
2019-03-09T03:05:43.101Z,84.19
2019-03-09T03:06:43.324Z,84.76
2019-03-09T03:07:43.551Z,84.47
2019-03-09T03:08:43.771Z,84.28
2019-03-09T03:09:43.996Z,83.62
2019-03-09T03:10:44.221Z,84.13
2019-03-09T03:11:44.446Z,83.28
2019-03-09T03:12:44.677Z,83.65
2019-03-09T03:13:44.898Z,83.28
2019-03-09T03:14:45.119Z,83.18
2019-03-09T03:15:45.343Z,83.28
2019-03-09T03:16:45.565Z,83.37
2019-03-09T03:17:45.790Z,83.09
2019-03-09T03:18:46.013Z,83.18
2019-03-09T03:19:46.239Z,82.99
2019-03-09T03:20:46.463Z,83.65
2019-03-09T03:21:46.687Z,83.28
2019-03-09T03:22:46.909Z,83.28
2019-03-09T03:23:47.138Z,83.75
2019-03-09T03:24:47.360Z,83.85
2019-03-09T03:25:47.666Z,83.37
2019-03-09T03:26:47.810Z,84.61
2019-03-09T03:27:48.043Z,84.61
2019-03-09T03:28:48.253Z,84.80
2019-03-09T03:29:48.475Z,85.75
2019-03-09T03:30:48.735Z,86.51
2019-03-09T03:31:48.943Z,87.27
2019-03-09T03:32:49.154Z,87.56
2019-03-09T03:33:49.373Z,88.60
2019-03-09T03:34:49.611Z,88.99
2019-03-09T03:35:49.820Z,89.37
2019-03-09T03:36:50.045Z,90.32
2019-03-09T03:37:50.301Z,90.13
2019-03-09T03:38:50.497Z,90.70
2019-03-09T03:39:50.717Z,90.61
2019-03-09T03:40:50.940Z,91.46
2019-03-09T03:41:51.171Z,91.32
2019-03-09T03:42:51.395Z,91.99
2019-03-09T03:43:51.620Z,92.56
2019-03-09T03:44:51.844Z,92.65
2019-03-09T03:45:52.068Z,93.41
2019-03-09T03:46:52.291Z,93.51
2019-03-09T03:47:52.517Z,93.70
2019-03-09T03:48:52.736Z,93.41
2019-03-09T03:49:52.956Z,93.60
2019-03-09T03:50:53.188Z,93.51
2019-03-09T03:51:53.407Z,94.27
2019-03-09T03:52:53.640Z,95.41
2019-03-09T03:53:53.857Z,95.32
2019-03-09T03:54:54.111Z,95.41
2019-03-09T03:55:54.302Z,95.70
2019-03-09T03:56:54.525Z,96.46
2019-03-09T03:57:54.747Z,96.26
2019-03-09T03:58:54.971Z,97.31
2019-03-09T03:59:55.205Z,97.31
2019-03-09T04:00:55.428Z,97.98
2019-03-09T04:01:55.645Z,97.79
2019-03-09T04:02:55.863Z,98.17
2019-03-09T04:03:56.089Z,98.55
2019-03-09T04:04:56.314Z,97.79
2019-03-09T04:05:56.541Z,98.17
2019-03-09T04:06:56.760Z,98.83
2019-03-09T04:07:56.983Z,99.02
2019-03-09T04:08:57.208Z,99.60
2019-03-09T04:09:57.430Z,99.99
2019-03-09T04:10:57.658Z,99.99
2019-03-09T04:11:57.879Z,99.99
2019-03-09T04:12:58.101Z,99.99
2019-03-09T04:13:58.327Z,99.99
2019-03-09T04:14:58.547Z,99.99
2019-03-09T04:15:58.773Z,99.99
2019-03-09T04:16:58.993Z,99.99
2019-03-09T04:17:59.213Z,99.99
2019-03-09T04:18:59.435Z,99.99
2019-03-09T04:19:59.657Z,99.99
2019-03-09T04:21:01.882Z,99.99
2019-03-09T04:22:00.106Z,99.99
2019-03-09T04:23:00.330Z,99.99
2019-03-09T04:24:00.553Z,99.99
2019-03-09T04:25:00.786Z,99.99
2019-03-09T04:26:01.001Z,99.99
2019-03-09T04:27:01.225Z,99.99
2019-03-09T04:28:01.531Z,99.99
2019-03-09T04:29:01.675Z,99.99
2019-03-09T04:30:01.902Z,99.99
2019-03-09T04:31:02.126Z,99.99
2019-03-09T04:32:02.348Z,99.99
2019-03-09T04:33:02.569Z,99.99
2019-03-09T04:34:02.791Z,99.99
2019-03-09T04:35:03.016Z,99.99
2019-03-09T04:36:03.241Z,99.99
2019-03-09T04:37:03.462Z,99.99
2019-03-09T04:38:03.688Z,99.99
2019-03-09T04:39:03.909Z,99.99
2019-03-09T04:40:04.133Z,99.99
2019-03-09T04:41:04.373Z,99.99
2019-03-09T04:42:04.579Z,99.99
2019-03-09T04:43:04.802Z,99.99
2019-03-09T04:44:05.027Z,99.99
2019-03-09T04:45:05.246Z,99.99
2019-03-09T04:46:05.468Z,99.99
2019-03-09T04:47:05.692Z,99.99
2019-03-09T04:48:05.918Z,99.99
2019-03-09T04:49:06.143Z,99.99
2019-03-09T04:50:06.366Z,99.99
2019-03-09T04:51:06.588Z,99.99
2019-03-09T04:52:06.814Z,99.99
2019-03-09T04:53:07.037Z,99.99
2019-03-09T04:54:07.266Z,99.99
2019-03-09T04:55:07.481Z,99.99
2019-03-09T04:56:07.706Z,99.99
2019-03-09T04:57:07.930Z,99.99
2019-03-09T04:58:08.156Z,99.99
2019-03-09T04:59:08.379Z,99.99
2019-03-09T05:00:08.604Z,99.99
2019-03-09T05:01:08.825Z,99.99
2019-03-09T05:02:09.050Z,99.99
2019-03-09T05:03:09.275Z,99.99
2019-03-09T05:04:09.504Z,99.99
2019-03-09T05:05:09.725Z,99.99
2019-03-09T05:06:09.947Z,99.99
2019-03-09T05:07:10.172Z,99.99
2019-03-09T05:08:10.395Z,99.99
2019-03-09T05:09:10.619Z,99.99
2019-03-09T05:10:10.844Z,99.99
2019-03-09T05:11:11.066Z,99.99
2019-03-09T05:12:11.289Z,99.99
2019-03-09T05:13:11.515Z,99.99
2019-03-09T05:14:11.737Z,99.99
2019-03-09T05:15:11.964Z,99.99
2019-03-09T05:16:12.183Z,99.99
2019-03-09T05:17:12.412Z,99.99
2019-03-09T05:18:12.631Z,99.99
2019-03-09T05:19:12.855Z,99.99
2019-03-09T05:20:13.080Z,99.99
2019-03-09T05:21:13.306Z,99.99
2019-03-09T05:22:13.531Z,99.99
2019-03-09T05:23:13.753Z,99.99
2019-03-09T05:24:13.983Z,99.99
2019-03-09T05:25:14.202Z,99.99
2019-03-09T05:26:14.473Z,99.99
2019-03-09T05:27:14.641Z,99.99
2019-03-09T05:28:14.865Z,99.99
2019-03-09T05:29:15.092Z,99.99
2019-03-09T05:30:15.961Z,99.99
2019-03-09T05:31:15.526Z,99.99
2019-03-09T05:32:15.749Z,99.99
2019-03-09T05:33:15.978Z,99.99
2019-03-09T05:34:16.195Z,99.99
2019-03-09T05:35:16.417Z,99.99
2019-03-09T05:36:16.642Z,99.99
2019-03-09T05:37:16.863Z,99.99
2019-03-09T05:38:17.087Z,99.99
2019-03-09T05:39:17.312Z,99.99
2019-03-09T05:40:17.536Z,99.99
2019-03-09T05:41:17.758Z,99.99
2019-03-09T05:42:17.980Z,99.99
2019-03-09T05:43:18.205Z,99.99
2019-03-09T05:44:18.430Z,99.99
2019-03-09T05:45:18.656Z,99.99
2019-03-09T05:46:18.879Z,99.99
2019-03-09T05:47:19.104Z,99.99
2019-03-09T05:48:19.331Z,99.99
2019-03-09T05:49:19.551Z,99.99
2019-03-09T05:50:19.775Z,99.99
2019-03-09T05:51:19.999Z,99.99
2019-03-09T05:52:20.227Z,99.99
2019-03-09T05:53:20.447Z,99.99
2019-03-09T05:54:20.672Z,99.99
2019-03-09T05:55:20.898Z,99.99
2019-03-09T05:56:21.120Z,99.99
2019-03-09T05:57:21.346Z,99.99
2019-03-09T05:58:21.569Z,99.99
2019-03-09T05:59:21.791Z,99.99
2019-03-09T06:00:22.063Z,99.99
2019-03-09T06:01:22.257Z,99.99
2019-03-09T06:02:22.480Z,99.99
2019-03-09T06:03:22.704Z,99.99
2019-03-09T06:04:22.927Z,99.99
2019-03-09T06:05:23.153Z,99.99
2019-03-09T06:06:23.374Z,99.99
2019-03-09T06:07:23.596Z,99.99
2019-03-09T06:08:23.821Z,99.99
2019-03-09T06:09:24.046Z,99.99
2019-03-09T06:10:24.270Z,99.99
2019-03-09T06:11:24.494Z,99.99
2019-03-09T06:12:24.718Z,99.99
2019-03-09T06:13:24.941Z,99.99
2019-03-09T06:14:25.165Z,99.99
2019-03-09T06:15:25.386Z,99.99
2019-03-09T06:16:25.617Z,99.99
2019-03-09T06:17:25.835Z,99.99
2019-03-09T06:18:26.058Z,99.99
2019-03-09T06:19:26.282Z,99.99
2019-03-09T06:20:26.505Z,99.99
2019-03-09T06:21:26.730Z,99.99
2019-03-09T06:22:26.955Z,99.99
2019-03-09T06:23:27.175Z,99.99
2019-03-09T06:24:27.400Z,99.99
2019-03-09T06:25:27.622Z,99.99
2019-03-09T06:26:27.846Z,99.99
2019-03-09T06:27:28.068Z,99.99
2019-03-09T06:28:28.294Z,99.99
2019-03-09T06:29:28.540Z,99.99
2019-03-09T06:30:28.763Z,99.99
2019-03-09T06:31:29.028Z,99.99
2019-03-09T06:32:29.207Z,99.99
2019-03-09T06:33:29.431Z,99.99
2019-03-09T06:34:29.652Z,99.99
2019-03-09T06:35:29.881Z,99.99
2019-03-09T06:36:30.136Z,99.99
2019-03-09T06:37:30.362Z,99.99
2019-03-09T06:38:30.593Z,99.99
2019-03-09T06:39:30.811Z,99.99
2019-03-09T06:40:31.036Z,99.99
2019-03-09T06:41:31.257Z,99.99
2019-03-09T06:42:31.482Z,99.99
2019-03-09T06:43:31.706Z,99.99
2019-03-09T06:44:31.936Z,99.99
2019-03-09T06:45:32.155Z,99.99
2019-03-09T06:46:32.377Z,99.99
2019-03-09T06:47:32.611Z,99.99
2019-03-09T06:48:32.827Z,99.99
2019-03-09T06:49:33.051Z,99.99
2019-03-09T06:50:33.276Z,99.99
2019-03-09T06:51:33.501Z,99.99
2019-03-09T06:52:33.726Z,99.99
2019-03-09T06:53:33.952Z,99.99
2019-03-09T06:54:34.171Z,99.99
2019-03-09T06:55:34.395Z,99.99
2019-03-09T06:56:34.623Z,99.99
2019-03-09T06:57:34.847Z,99.99
2019-03-09T06:58:35.071Z,99.99
2019-03-09T06:59:35.296Z,99.99
2019-03-09T07:00:35.517Z,99.99
2019-03-09T07:01:35.740Z,99.99
2019-03-09T07:02:35.964Z,99.99
2019-03-09T07:03:36.188Z,99.99
2019-03-09T07:04:36.414Z,99.99
2019-03-09T07:05:36.633Z,99.99
2019-03-09T07:06:36.858Z,99.99
2019-03-09T07:07:37.082Z,99.99
2019-03-09T07:08:39.375Z,99.99
2019-03-09T07:09:37.533Z,99.99
2019-03-09T07:10:37.752Z,99.99
2019-03-09T07:11:37.979Z,99.99
2019-03-09T07:12:38.199Z,99.99
2019-03-09T07:13:38.427Z,99.99
2019-03-09T07:14:38.650Z,99.99
2019-03-09T07:15:38.875Z,99.99
2019-03-09T07:16:39.132Z,99.99
2019-03-09T07:17:39.323Z,99.99
2019-03-09T07:18:39.546Z,99.99
2019-03-09T07:19:39.772Z,99.99
2019-03-09T07:20:39.998Z,99.99
2019-03-09T07:21:40.219Z,99.99
2019-03-09T07:22:40.467Z,99.99
2019-03-09T07:23:40.672Z,99.99
2019-03-09T07:24:40.897Z,99.99
2019-03-09T07:25:41.126Z,99.99
2019-03-09T07:26:41.347Z,99.99
2019-03-09T07:27:41.570Z,99.99
2019-03-09T07:28:41.791Z,99.99
2019-03-09T07:29:42.020Z,99.99
2019-03-09T07:30:42.243Z,99.99
2019-03-09T07:31:44.075Z,99.99
2019-03-09T07:32:42.693Z,99.99
2019-03-09T07:33:42.933Z,99.99
2019-03-09T07:34:43.145Z,99.99
2019-03-09T07:35:43.371Z,99.99
2019-03-09T07:36:43.594Z,99.99
2019-03-09T07:37:43.820Z,99.99
2019-03-09T07:38:44.044Z,99.99
2019-03-09T07:39:44.272Z,99.99
2019-03-09T07:40:44.498Z,99.99
2019-03-09T07:41:44.725Z,99.99
2019-03-09T07:42:44.949Z,99.99
2019-03-09T07:43:45.173Z,99.99
2019-03-09T07:44:45.395Z,99.99
2019-03-09T07:45:45.622Z,99.99
2019-03-09T07:46:45.848Z,99.99
2019-03-09T07:47:46.070Z,99.99
2019-03-09T07:48:46.292Z,99.99
2019-03-09T07:49:46.516Z,99.99
2019-03-09T07:50:46.742Z,99.99
2019-03-09T07:51:46.966Z,99.99
2019-03-09T07:52:47.192Z,99.99
2019-03-09T07:53:47.416Z,99.99
2019-03-09T07:54:47.646Z,99.99
2019-03-09T07:55:47.865Z,99.99
2019-03-09T07:56:48.093Z,99.99
2019-03-09T07:57:48.317Z,99.99
2019-03-09T07:58:48.541Z,99.99
2019-03-09T07:59:48.767Z,99.99
2019-03-09T08:00:49.007Z,99.99
2019-03-09T08:01:49.215Z,99.99
2019-03-09T08:02:49.443Z,99.99
2019-03-09T08:03:49.666Z,99.99
2019-03-09T08:04:49.890Z,99.99
2019-03-09T08:05:50.117Z,99.99
2019-03-09T08:06:50.343Z,99.99
2019-03-09T08:07:50.609Z,99.99
2019-03-09T08:08:50.832Z,99.99
2019-03-09T08:09:51.059Z,99.99
2019-03-09T08:10:51.292Z,99.99
2019-03-09T08:11:51.510Z,99.99
2019-03-09T08:12:51.737Z,99.99
2019-03-09T08:13:51.965Z,99.99
2019-03-09T08:14:52.190Z,99.99
2019-03-09T08:15:52.414Z,99.99
2019-03-09T08:16:52.641Z,99.99
2019-03-09T08:17:52.861Z,99.99
2019-03-09T08:18:53.092Z,99.99
2019-03-09T08:19:53.314Z,99.99
2019-03-09T08:20:53.541Z,99.99
2019-03-09T08:21:53.765Z,99.99
2019-03-09T08:22:54.027Z,99.99
2019-03-09T08:23:56.425Z,99.99
2019-03-09T08:24:54.435Z,99.99
2019-03-09T08:25:54.666Z,99.99
2019-03-09T08:26:54.893Z,99.99
2019-03-09T08:27:55.118Z,99.99
2019-03-09T08:28:55.341Z,99.99
2019-03-09T08:29:55.573Z,99.99
2019-03-09T08:30:55.791Z,99.99
2019-03-09T08:31:56.022Z,99.99
2019-03-09T08:32:56.251Z,99.99
2019-03-09T08:33:56.478Z,99.99
2019-03-09T08:34:56.698Z,99.99
2019-03-09T08:35:56.942Z,99.99
2019-03-09T08:36:57.151Z,99.99
2019-03-09T08:37:57.372Z,99.99
2019-03-09T08:38:57.619Z,99.99
2019-03-09T08:39:57.823Z,99.99
2019-03-09T08:40:58.050Z,99.99
2019-03-09T08:41:58.278Z,99.99
2019-03-09T08:42:58.503Z,99.99
2019-03-09T08:43:58.737Z,99.99
2019-03-09T08:44:58.963Z,99.99
2019-03-09T08:45:59.183Z,99.99
2019-03-09T08:46:59.413Z,99.99
2019-03-09T08:47:59.636Z,99.75
2019-03-09T08:49:00.110Z,99.18
2019-03-09T08:50:00.336Z,99.95
2019-03-09T08:51:00.317Z,99.56
2019-03-09T08:52:00.544Z,99.18
2019-03-09T08:53:00.797Z,98.75
2019-03-09T08:54:00.987Z,98.75
2019-03-09T08:55:01.226Z,98.08
2019-03-09T08:56:01.443Z,97.03
2019-03-09T08:57:01.668Z,97.22
2019-03-09T08:58:01.888Z,96.84
2019-03-09T08:59:02.114Z,95.98
2019-03-09T09:00:02.350Z,96.84
2019-03-09T09:01:02.573Z,96.08
2019-03-09T09:02:02.825Z,96.56
2019-03-09T09:03:03.012Z,95.61
2019-03-09T09:04:03.237Z,95.41
2019-03-09T09:05:03.470Z,95.32
2019-03-09T09:06:03.701Z,95.70
2019-03-09T09:07:03.937Z,94.98
2019-03-09T09:08:04.239Z,94.51
2019-03-09T09:09:04.380Z,94.03
2019-03-09T09:10:04.613Z,93.93
2019-03-09T09:11:04.832Z,94.22
2019-03-09T09:12:05.065Z,93.93
2019-03-09T09:13:05.288Z,92.97
2019-03-09T09:14:05.518Z,93.26
2019-03-09T09:15:05.748Z,92.79
2019-03-09T09:16:05.975Z,93.07
2019-03-09T09:17:06.198Z,92.79
2019-03-09T09:18:06.425Z,92.69
2019-03-09T09:19:06.649Z,92.21
2019-03-09T09:20:06.878Z,92.50
2019-03-09T09:21:07.101Z,92.60
2019-03-09T09:22:07.329Z,92.31
2019-03-09T09:23:07.555Z,91.83
2019-03-09T09:24:07.784Z,91.83
2019-03-09T09:25:08.016Z,92.46
2019-03-09T09:26:08.232Z,92.60
2019-03-09T09:27:08.464Z,92.79
2019-03-09T09:28:08.686Z,92.26
2019-03-09T09:29:08.910Z,92.69
2019-03-09T09:30:09.140Z,91.74
2019-03-09T09:31:09.362Z,91.74
2019-03-09T09:32:09.597Z,91.93
2019-03-09T09:33:09.822Z,91.74
2019-03-09T09:34:10.050Z,91.55
2019-03-09T09:35:10.277Z,92.12
2019-03-09T09:36:10.502Z,91.36
2019-03-09T09:37:10.728Z,91.36
2019-03-09T09:38:10.958Z,91.45
2019-03-09T09:39:11.182Z,90.88
2019-03-09T09:40:11.408Z,90.97
2019-03-09T09:41:11.631Z,90.92
2019-03-09T09:42:11.858Z,90.40
2019-03-09T09:43:12.084Z,89.45
2019-03-09T09:44:12.327Z,90.11
2019-03-09T09:45:12.534Z,90.50
2019-03-09T09:46:12.764Z,89.87
2019-03-09T09:47:12.988Z,89.73
2019-03-09T09:48:13.215Z,89.64
2019-03-09T09:49:13.459Z,89.83
2019-03-09T09:50:13.686Z,89.54
2019-03-09T09:51:13.913Z,88.97
2019-03-09T09:52:14.138Z,89.35
2019-03-09T09:53:14.377Z,89.06
2019-03-09T09:54:14.602Z,88.78
2019-03-09T09:55:14.829Z,89.25
2019-03-09T09:56:15.053Z,88.97
2019-03-09T09:57:15.278Z,89.35
2019-03-09T09:58:15.505Z,88.97
2019-03-09T09:59:15.732Z,89.25
2019-03-09T10:00:16.448Z,89.25
2019-03-09T10:01:16.135Z,89.45
2019-03-09T10:02:16.362Z,89.73
2019-03-09T10:03:16.591Z,88.97
2019-03-09T10:04:16.813Z,89.83
2019-03-09T10:05:17.056Z,89.54
2019-03-09T10:06:17.270Z,89.45
2019-03-09T10:07:17.505Z,89.54
2019-03-09T10:08:17.721Z,89.64
2019-03-09T10:09:17.951Z,89.73
2019-03-09T10:10:18.182Z,88.68
2019-03-09T10:11:18.401Z,88.49
2019-03-09T10:12:18.625Z,88.40
2019-03-09T10:13:18.855Z,88.40
2019-03-09T10:14:19.081Z,88.40
2019-03-09T10:15:19.312Z,88.20
2019-03-09T10:16:19.534Z,88.68
2019-03-09T10:17:19.757Z,88.40
2019-03-09T10:18:19.984Z,87.96
2019-03-09T10:19:20.211Z,88.15
2019-03-09T10:20:20.435Z,87.82
2019-03-09T10:21:20.662Z,87.92
2019-03-09T10:22:20.887Z,87.73
2019-03-09T10:23:21.113Z,87.25
2019-03-09T10:24:21.338Z,87.73
2019-03-09T10:25:21.564Z,87.25
2019-03-09T10:26:24.665Z,88.20
2019-03-09T10:27:22.021Z,88.30
2019-03-09T10:28:22.244Z,88.20
2019-03-09T10:29:22.472Z,88.20
2019-03-09T10:30:22.698Z,88.30
2019-03-09T10:31:22.920Z,87.92
2019-03-09T10:32:23.147Z,87.35
2019-03-09T10:33:24.239Z,87.35
2019-03-09T10:34:23.600Z,87.63
2019-03-09T10:35:23.832Z,87.15
2019-03-09T10:36:24.052Z,87.25
2019-03-09T10:37:24.277Z,86.96
2019-03-09T10:38:24.504Z,86.87
2019-03-09T10:39:24.730Z,86.39
2019-03-09T10:40:24.957Z,87.15
2019-03-09T10:41:25.194Z,86.72
2019-03-09T10:42:25.407Z,86.68
2019-03-09T10:43:25.635Z,87.25
2019-03-09T10:44:25.856Z,87.15
2019-03-09T10:45:26.084Z,87.35
2019-03-09T10:46:26.316Z,87.15
2019-03-09T10:47:26.538Z,86.39
2019-03-09T10:48:26.764Z,86.53
2019-03-09T10:49:26.990Z,86.96
2019-03-09T10:50:27.262Z,86.77
2019-03-09T10:51:27.465Z,85.63
2019-03-09T10:52:27.694Z,86.39
2019-03-09T10:53:27.923Z,86.49
2019-03-09T10:54:35.801Z,86.53
2019-03-09T10:55:28.368Z,86.72
2019-03-09T10:56:28.589Z,86.10
2019-03-09T10:57:28.816Z,85.91
2019-03-09T10:58:29.043Z,85.63
2019-03-09T10:59:29.265Z,86.49
2019-03-09T11:00:29.494Z,86.30
2019-03-09T11:01:29.722Z,86.39
2019-03-09T11:02:29.952Z,86.58
2019-03-09T11:03:30.177Z,86.20
2019-03-09T11:04:30.404Z,86.63
2019-03-09T11:05:30.632Z,86.01
2019-03-09T11:06:30.859Z,86.34
2019-03-09T11:07:31.083Z,86.43
2019-03-09T11:08:31.321Z,86.63
2019-03-09T11:09:31.543Z,86.49
2019-03-09T11:10:31.771Z,86.68
2019-03-09T11:11:31.997Z,86.68
2019-03-09T11:12:32.222Z,86.01
2019-03-09T11:13:32.448Z,86.05
2019-03-09T11:14:32.671Z,86.10
2019-03-09T11:15:32.898Z,85.82
2019-03-09T11:16:33.125Z,85.96
2019-03-09T11:17:33.353Z,86.15
2019-03-09T11:18:33.588Z,85.96
2019-03-09T11:19:33.812Z,85.48
2019-03-09T11:20:34.040Z,85.77
2019-03-09T11:21:34.264Z,85.19
2019-03-09T11:22:34.490Z,84.52
2019-03-09T11:23:34.746Z,84.62
2019-03-09T11:24:34.951Z,84.14
2019-03-09T11:25:35.212Z,83.76
2019-03-09T11:26:35.457Z,83.57
2019-03-09T11:27:35.731Z,83.57
2019-03-09T11:28:35.909Z,83.23
2019-03-09T11:29:36.137Z,83.51
2019-03-09T11:30:36.362Z,82.84
2019-03-09T11:31:36.593Z,82.56
2019-03-09T11:32:36.814Z,82.56
2019-03-09T11:33:37.039Z,82.18
2019-03-09T11:34:37.291Z,81.70
2019-03-09T11:35:37.511Z,81.32
2019-03-09T11:36:37.741Z,81.22
2019-03-09T11:37:38.017Z,81.60
2019-03-09T11:38:38.221Z,80.84
2019-03-09T11:39:38.450Z,80.65
2019-03-09T11:40:38.675Z,80.46
2019-03-09T11:41:38.910Z,80.84
2019-03-09T11:42:39.200Z,80.36
2019-03-09T11:43:39.379Z,79.98
2019-03-09T11:44:39.601Z,79.60
2019-03-09T11:45:39.827Z,79.88
2019-03-09T11:46:40.100Z,79.60
2019-03-09T11:47:40.354Z,79.98
2019-03-09T11:48:40.580Z,79.60
2019-03-09T11:49:40.808Z,79.31
2019-03-09T11:50:41.035Z,78.55
2019-03-09T11:51:41.265Z,79.31
2019-03-09T11:52:41.488Z,78.64
2019-03-09T11:53:41.712Z,79.02
2019-03-09T11:54:41.936Z,78.64
2019-03-09T11:55:42.162Z,78.07
2019-03-09T11:56:42.388Z,78.45
2019-03-09T11:57:42.614Z,78.07
2019-03-09T11:58:42.848Z,77.59
2019-03-09T11:59:43.072Z,78.07
2019-03-09T12:00:43.299Z,77.78
2019-03-09T12:01:43.525Z,77.97
2019-03-09T12:02:43.753Z,78.26
2019-03-09T12:03:43.978Z,78.16
2019-03-09T12:04:47.103Z,78.26
2019-03-09T12:05:44.438Z,78.20
2019-03-09T12:06:44.660Z,78.20
2019-03-09T12:07:44.882Z,77.63
2019-03-09T12:08:45.106Z,78.30
2019-03-09T12:09:45.331Z,78.20
2019-03-09T12:10:45.558Z,77.82
2019-03-09T12:11:45.797Z,77.63
2019-03-09T12:12:46.023Z,76.77
2019-03-09T12:13:46.256Z,77.34
2019-03-09T12:14:46.473Z,77.15
2019-03-09T12:15:46.700Z,77.57
2019-03-09T12:16:46.927Z,76.81
2019-03-09T12:17:47.159Z,76.42
2019-03-09T12:18:47.384Z,75.76
2019-03-09T12:19:47.619Z,75.24
2019-03-09T12:20:47.834Z,75.56
2019-03-09T12:21:48.064Z,75.56
2019-03-09T12:22:48.285Z,75.09
2019-03-09T12:23:48.509Z,75.09
2019-03-09T12:24:48.741Z,75.18
2019-03-09T12:25:48.965Z,75.27
2019-03-09T12:26:49.195Z,75.27
2019-03-09T12:27:49.421Z,74.61
2019-03-09T12:28:49.652Z,74.22
2019-03-09T12:29:49.876Z,74.22
2019-03-09T12:30:50.103Z,73.84
2019-03-09T12:31:50.334Z,74.13
2019-03-09T12:32:50.567Z,74.13
2019-03-09T12:33:50.816Z,74.41
2019-03-09T12:34:51.042Z,74.41
2019-03-09T12:35:51.272Z,74.41
2019-03-09T12:36:51.497Z,74.70
2019-03-09T12:37:51.725Z,74.61
2019-03-09T12:38:51.955Z,75.05
2019-03-09T12:39:52.179Z,74.28
2019-03-09T12:40:52.408Z,74.66
2019-03-09T12:41:52.755Z,74.85
2019-03-09T12:42:52.858Z,75.05
2019-03-09T12:43:53.151Z,74.85
2019-03-09T12:44:53.257Z,74.76
2019-03-09T12:45:53.482Z,74.99
2019-03-09T12:46:53.718Z,74.48
2019-03-09T12:47:53.951Z,74.32
2019-03-09T12:48:54.186Z,74.13
2019-03-09T12:49:54.406Z,74.41
2019-03-09T12:50:54.638Z,74.04
2019-03-09T12:51:54.873Z,74.32
2019-03-09T12:52:55.096Z,73.99
2019-03-09T12:53:55.332Z,73.80
2019-03-09T12:54:55.553Z,73.90
2019-03-09T12:55:55.772Z,74.09